createdAt,value
2018-08-24T00:04:26.696Z,99.90
2018-08-24T00:06:54.940Z,99.90
2018-08-24T00:09:24.709Z,99.90
2018-08-24T00:11:52.983Z,99.90
2018-08-24T00:14:21.129Z,99.90
2018-08-24T00:16:49.409Z,99.90
2018-08-24T00:19:17.949Z,99.90
2018-08-24T00:21:47.066Z,99.90
2018-08-24T00:24:15.827Z,99.90
2018-08-24T00:26:43.990Z,99.90
2018-08-24T00:29:12.164Z,99.90
2018-08-24T00:31:40.894Z,99.90
2018-08-24T00:34:09.056Z,99.90
2018-08-24T00:36:37.309Z,99.90
2018-08-24T00:39:07.193Z,99.90
2018-08-24T00:41:35.628Z,99.90
2018-08-24T00:44:03.899Z,99.90
2018-08-24T00:46:32.063Z,99.90
2018-08-24T00:49:00.284Z,99.90
2018-08-24T00:51:28.458Z,99.90
2018-08-24T00:53:56.645Z,99.90
2018-08-24T00:56:24.833Z,99.90
2018-08-24T00:58:53.005Z,99.90
2018-08-24T01:01:21.184Z,99.90
2018-08-24T01:03:49.357Z,99.90
2018-08-24T01:06:21.829Z,99.90
2018-08-24T01:08:50.044Z,99.90
2018-08-24T01:11:18.259Z,99.90
2018-08-24T01:13:50.453Z,99.90
2018-08-24T01:16:24.491Z,99.90
2018-08-24T01:18:52.633Z,99.90
2018-08-24T01:21:20.828Z,99.90
2018-08-24T01:23:48.986Z,99.90
2018-08-24T01:26:22.802Z,99.90
2018-08-24T01:28:51.608Z,99.90
2018-08-24T01:31:20.021Z,99.90
2018-08-24T01:33:48.188Z,99.90
2018-08-24T01:36:16.428Z,99.90
2018-08-24T01:38:44.635Z,99.90
2018-08-24T01:41:12.850Z,99.90
2018-08-24T01:43:41.048Z,99.90
2018-08-24T01:46:09.318Z,99.90
2018-08-24T01:48:38.085Z,99.90
2018-08-24T01:51:06.572Z,99.90
2018-08-24T01:53:34.771Z,99.90
2018-08-24T01:56:03.059Z,99.90
2018-08-24T01:58:31.218Z,99.90
2018-08-24T02:00:59.396Z,99.90
2018-08-24T02:03:27.613Z,99.90
2018-08-24T02:06:00.018Z,99.90
2018-08-24T02:08:28.242Z,99.90
2018-08-24T02:10:56.456Z,99.90
2018-08-24T02:13:30.083Z,99.90
2018-08-24T02:15:58.380Z,99.90
2018-08-24T02:18:32.050Z,99.90
2018-08-24T02:21:05.823Z,99.90
2018-08-24T02:23:34.026Z,99.90
2018-08-24T02:26:02.234Z,99.90
2018-08-24T02:28:30.450Z,99.90
2018-08-24T02:31:01.258Z,99.90
2018-08-24T02:33:34.094Z,99.90
2018-08-24T02:36:02.273Z,99.90
2018-08-24T02:38:30.434Z,99.90
2018-08-24T02:40:58.640Z,99.90
2018-08-24T02:43:26.800Z,99.90
2018-08-24T02:45:55.030Z,99.90
2018-08-24T02:48:23.226Z,99.90
2018-08-24T02:50:51.482Z,99.90
2018-08-24T02:53:19.725Z,99.90
2018-08-24T02:55:47.939Z,99.90
2018-08-24T02:58:16.351Z,99.90
2018-08-24T03:00:44.668Z,99.90
2018-08-24T03:03:12.863Z,99.90
2018-08-24T03:05:41.271Z,99.90
2018-08-24T03:08:09.369Z,99.90
2018-08-24T03:10:37.530Z,99.90
2018-08-24T03:13:05.726Z,99.90
2018-08-24T03:15:33.897Z,99.90
2018-08-24T03:18:02.082Z,99.90
2018-08-24T03:20:30.328Z,99.90
2018-08-24T03:22:58.475Z,99.90
2018-08-24T03:25:26.745Z,99.90
2018-08-24T03:27:54.912Z,99.90
2018-08-24T03:30:23.092Z,99.90
2018-08-24T03:32:51.274Z,99.90
2018-08-24T03:35:19.453Z,99.90
2018-08-24T03:37:47.720Z,99.90
2018-08-24T03:40:15.896Z,99.90
2018-08-24T03:42:44.109Z,99.90
2018-08-24T03:45:12.360Z,99.90
2018-08-24T03:47:40.524Z,99.90
2018-08-24T03:50:08.683Z,99.90
2018-08-24T03:52:36.936Z,99.90
2018-08-24T03:55:05.398Z,99.90
2018-08-24T03:57:33.656Z,99.90
2018-08-24T04:00:01.860Z,99.90
2018-08-24T04:02:30.027Z,99.90
2018-08-24T04:04:58.209Z,99.90
2018-08-24T04:07:26.417Z,99.90
2018-08-24T04:09:54.603Z,99.90
2018-08-24T04:12:22.791Z,99.90
2018-08-24T04:14:50.965Z,99.90
2018-08-24T04:17:25.608Z,99.90
2018-08-24T04:19:53.889Z,99.90
2018-08-24T04:22:22.147Z,99.90
2018-08-24T04:24:50.439Z,99.90
2018-08-24T04:27:18.630Z,99.90
2018-08-24T04:29:46.791Z,99.90
2018-08-24T04:32:15.019Z,99.90
2018-08-24T04:34:43.177Z,99.90
2018-08-24T04:37:11.357Z,99.90
2018-08-24T04:39:39.539Z,99.90
2018-08-24T04:42:07.687Z,99.90
2018-08-24T04:44:35.871Z,99.90
2018-08-24T04:47:04.037Z,99.90
2018-08-24T04:49:32.226Z,99.90
2018-08-24T04:52:00.442Z,99.90
2018-08-24T04:54:28.649Z,99.90
2018-08-24T04:56:56.808Z,99.90
2018-08-24T04:59:25.031Z,99.90
2018-08-24T05:01:53.217Z,99.90
2018-08-24T05:04:21.383Z,99.90
2018-08-24T05:06:49.600Z,99.90
2018-08-24T05:09:17.816Z,99.90
2018-08-24T05:11:46.026Z,99.90
2018-08-24T05:14:14.323Z,99.90
2018-08-24T05:16:42.551Z,99.90
2018-08-24T05:19:10.731Z,99.90
2018-08-24T05:21:38.940Z,99.90
2018-08-24T05:24:07.171Z,99.90
2018-08-24T05:26:35.376Z,99.90
2018-08-24T05:29:03.564Z,99.90
2018-08-24T05:31:31.726Z,99.90
2018-08-24T05:33:59.894Z,99.90
2018-08-24T05:36:28.166Z,99.90
2018-08-24T05:38:56.351Z,99.90
2018-08-24T05:41:24.638Z,99.90
2018-08-24T05:43:52.791Z,99.90
2018-08-24T05:46:20.975Z,99.90
2018-08-24T05:48:49.451Z,99.90
2018-08-24T05:51:17.692Z,99.90
2018-08-24T05:53:45.960Z,99.90
2018-08-24T05:56:14.474Z,99.90
2018-08-24T05:58:42.709Z,99.90
2018-08-24T06:01:10.976Z,99.90
2018-08-24T06:03:39.176Z,99.90
2018-08-24T06:06:07.343Z,99.90
2018-08-24T06:08:35.529Z,99.90
2018-08-24T06:11:03.714Z,99.90
2018-08-24T06:13:31.950Z,99.90
2018-08-24T06:16:00.208Z,99.90
2018-08-24T06:18:28.363Z,99.90
2018-08-24T06:20:56.573Z,99.90
2018-08-24T06:23:24.779Z,99.90
2018-08-24T06:25:52.998Z,99.90
2018-08-24T06:28:21.221Z,99.90
2018-08-24T06:30:49.460Z,99.90
2018-08-24T06:33:17.620Z,99.90
2018-08-24T06:35:45.824Z,99.90
2018-08-24T06:38:14.126Z,99.90
2018-08-24T06:40:42.358Z,99.90
2018-08-24T06:43:10.521Z,99.90
2018-08-24T06:45:38.717Z,99.90
2018-08-24T06:48:07.012Z,99.90
2018-08-24T06:50:35.376Z,99.90
2018-08-24T06:53:03.695Z,99.90
2018-08-24T06:55:31.977Z,99.90
2018-08-24T06:58:00.227Z,99.90
2018-08-24T07:00:32.508Z,99.90
2018-08-24T07:03:02.291Z,99.90
2018-08-24T07:05:31.341Z,99.90
2018-08-24T07:07:59.910Z,99.90
2018-08-24T07:10:28.152Z,99.90
2018-08-24T07:12:56.577Z,99.90
2018-08-24T07:15:24.770Z,99.90
2018-08-24T07:17:58.441Z,99.90
2018-08-24T07:20:26.691Z,99.90
2018-08-24T07:22:55.104Z,99.90
2018-08-24T07:25:23.328Z,99.90
2018-08-24T07:27:51.559Z,99.90
2018-08-24T07:30:19.877Z,99.90
2018-08-24T07:32:48.115Z,99.90
2018-08-24T07:35:16.628Z,99.90
2018-08-24T07:37:44.819Z,99.90
2018-08-24T07:40:13.043Z,99.90
2018-08-24T07:42:41.211Z,99.90
2018-08-24T07:45:09.403Z,99.90
2018-08-24T07:47:37.565Z,99.90
2018-08-24T07:50:06.044Z,99.90
2018-08-24T07:52:34.350Z,99.90
2018-08-24T07:55:02.568Z,99.90
2018-08-24T07:57:30.730Z,99.90
2018-08-24T07:59:59.051Z,99.90
2018-08-24T08:02:32.704Z,99.90
2018-08-24T08:05:00.969Z,99.90
2018-08-24T08:07:29.238Z,99.90
2018-08-24T08:09:57.387Z,99.90
2018-08-24T08:12:25.607Z,99.90
2018-08-24T08:14:59.953Z,99.90
2018-08-24T08:17:28.299Z,99.90
2018-08-24T08:19:56.489Z,99.90
2018-08-24T08:22:24.665Z,99.90
2018-08-24T08:24:53.529Z,99.90
2018-08-24T08:27:21.860Z,99.90
2018-08-24T08:29:55.774Z,99.90
2018-08-24T08:32:23.973Z,99.90
2018-08-24T08:34:53.276Z,99.90
2018-08-24T08:37:22.845Z,99.90
2018-08-24T08:39:51.875Z,99.90
2018-08-24T08:42:20.851Z,99.90
2018-08-24T08:44:49.410Z,99.90
2018-08-24T08:47:17.824Z,99.90
2018-08-24T08:49:46.351Z,99.90
2018-08-24T08:52:14.751Z,99.90
2018-08-24T08:54:43.071Z,99.90
2018-08-24T08:57:11.546Z,99.90
2018-08-24T08:59:39.946Z,99.90
2018-08-24T09:02:09.636Z,99.90
2018-08-24T09:04:38.814Z,99.90
2018-08-24T09:07:07.175Z,99.90
2018-08-24T09:09:35.356Z,99.90
2018-08-24T09:12:03.619Z,99.90
2018-08-24T09:14:32.042Z,99.90
2018-08-24T09:17:04.630Z,99.90
2018-08-24T09:19:38.205Z,99.90
2018-08-24T09:22:11.757Z,99.90
2018-08-24T09:24:45.451Z,99.90
2018-08-24T09:27:19.147Z,99.90
2018-08-24T09:29:47.334Z,99.90
2018-08-24T09:32:15.570Z,99.90
2018-08-24T09:34:43.859Z,99.90
2018-08-24T09:37:17.618Z,99.90
2018-08-24T09:39:45.823Z,99.90
2018-08-24T09:42:14.168Z,99.90
2018-08-24T09:44:42.396Z,99.90
2018-08-24T09:47:16.036Z,99.90
2018-08-24T09:49:44.261Z,99.90
2018-08-24T09:52:18.028Z,99.90
2018-08-24T09:54:47.013Z,99.90
2018-08-24T09:57:15.252Z,99.90
2018-08-24T09:59:43.578Z,99.90
2018-08-24T10:02:17.218Z,99.90
2018-08-24T10:04:51.200Z,99.90
2018-08-24T10:07:24.065Z,99.90
2018-08-24T10:09:52.345Z,99.90
2018-08-24T10:12:20.551Z,99.90
2018-08-24T10:14:48.795Z,99.90
2018-08-24T10:17:17.049Z,99.90
2018-08-24T10:19:45.225Z,99.90
2018-08-24T10:22:13.557Z,99.90
2018-08-24T10:24:41.768Z,99.90
2018-08-24T10:27:10.038Z,99.90
2018-08-24T10:29:38.423Z,99.90
2018-08-24T10:32:06.629Z,99.90
2018-08-24T10:34:34.851Z,99.90
2018-08-24T10:37:03.171Z,99.90
2018-08-24T10:39:32.594Z,99.90
2018-08-24T10:42:00.868Z,99.90
2018-08-24T10:44:29.194Z,99.90
2018-08-24T10:46:57.662Z,98.40
2018-08-24T10:49:26.024Z,96.30
2018-08-24T10:51:54.357Z,95.80
2018-08-24T10:54:22.666Z,94.80
2018-08-24T10:56:51.131Z,97.20
2018-08-24T10:59:19.655Z,99.70
2018-08-24T11:01:48.118Z,99.90
2018-08-24T11:04:16.387Z,99.90
2018-08-24T11:06:44.639Z,99.90
2018-08-24T11:09:12.852Z,99.90
2018-08-24T11:11:41.393Z,99.20
2018-08-24T11:14:10.100Z,96.10
2018-08-24T11:16:38.711Z,97.30
2018-08-24T11:19:07.296Z,97.90
2018-08-24T11:21:35.749Z,98.30
2018-08-24T11:24:04.289Z,98.70
2018-08-24T11:26:33.604Z,96.00
2018-08-24T11:29:02.199Z,91.90
2018-08-24T11:31:30.648Z,90.10
2018-08-24T11:33:58.925Z,90.20
2018-08-24T11:36:27.245Z,90.30
2018-08-24T11:38:55.766Z,88.40
2018-08-24T11:41:23.982Z,87.40
2018-08-24T11:43:52.203Z,83.00
2018-08-24T11:46:20.430Z,85.10
2018-08-24T11:48:48.615Z,80.20
2018-08-24T11:51:16.830Z,78.50
2018-08-24T11:53:45.035Z,80.50
2018-08-24T11:56:13.261Z,80.70
2018-08-24T11:58:41.473Z,75.90
2018-08-24T12:01:09.814Z,76.70
2018-08-24T12:03:37.976Z,78.30
2018-08-24T12:06:06.175Z,81.50
2018-08-24T12:08:34.691Z,85.60
2018-08-24T12:11:03.630Z,83.90
2018-08-24T12:13:31.814Z,81.40
2018-08-24T12:15:59.985Z,83.50
2018-08-24T12:18:28.292Z,85.50
2018-08-24T12:20:56.434Z,85.00
2018-08-24T12:23:24.861Z,85.00
2018-08-24T12:25:53.400Z,83.80
2018-08-24T12:28:21.815Z,82.40
2018-08-24T12:30:50.352Z,80.40
2018-08-24T12:33:18.996Z,78.70
2018-08-24T12:35:47.670Z,78.60
2018-08-24T12:38:15.796Z,79.60
2018-08-24T12:40:43.993Z,79.50
2018-08-24T12:43:12.359Z,78.00
2018-08-24T12:45:40.718Z,76.00
2018-08-24T12:48:09.154Z,73.70
2018-08-24T12:50:37.383Z,70.80
2018-08-24T12:53:05.892Z,68.30
2018-08-24T12:55:34.215Z,63.50
2018-08-24T12:58:02.502Z,59.10
2018-08-24T13:00:30.695Z,58.90
2018-08-24T13:02:58.879Z,58.70
2018-08-24T13:05:27.134Z,62.50
2018-08-24T13:07:55.415Z,65.30
2018-08-24T13:10:23.550Z,64.40
2018-08-24T13:12:51.736Z,61.30
2018-08-24T13:15:19.990Z,59.90
2018-08-24T13:17:48.381Z,59.30
2018-08-24T13:20:16.644Z,58.90
2018-08-24T13:22:44.858Z,55.80
2018-08-24T13:25:13.022Z,54.80
2018-08-24T13:27:41.307Z,55.00
2018-08-24T13:30:09.596Z,52.00
2018-08-24T13:32:37.779Z,50.90
2018-08-24T13:35:06.088Z,50.00
2018-08-24T13:37:34.329Z,49.10
2018-08-24T13:40:02.541Z,49.50
2018-08-24T13:42:31.737Z,49.60
2018-08-24T13:45:00.421Z,50.70
2018-08-24T13:47:28.729Z,51.50
2018-08-24T13:49:56.987Z,52.50
2018-08-24T13:52:25.228Z,53.60
2018-08-24T13:54:53.520Z,54.70
2018-08-24T13:57:21.796Z,55.50
2018-08-24T13:59:49.970Z,55.90
2018-08-24T14:02:18.167Z,56.40
2018-08-24T14:04:46.352Z,56.10
2018-08-24T14:07:14.542Z,55.90
2018-08-24T14:09:42.762Z,55.70
2018-08-24T14:12:11.046Z,56.50
2018-08-24T14:14:39.252Z,56.30
2018-08-24T14:17:07.458Z,57.60
2018-08-24T14:19:35.876Z,57.80
2018-08-24T14:22:04.071Z,58.50
2018-08-24T14:24:32.258Z,59.00
2018-08-24T14:27:00.447Z,59.20
2018-08-24T14:29:28.693Z,59.10
2018-08-24T14:31:57.120Z,59.70
2018-08-24T14:34:25.349Z,59.30
2018-08-24T14:36:53.615Z,59.00
2018-08-24T14:39:21.923Z,58.80
2018-08-24T14:41:50.088Z,59.00
2018-08-24T14:44:18.299Z,60.00
2018-08-24T14:46:46.490Z,59.30
2018-08-24T14:49:14.721Z,60.60
2018-08-24T14:51:43.369Z,61.30
2018-08-24T14:54:11.563Z,59.80
2018-08-24T14:56:39.766Z,60.80
2018-08-24T14:59:07.966Z,59.40
2018-08-24T15:01:36.141Z,58.80
2018-08-24T15:04:04.376Z,57.40
2018-08-24T15:06:32.566Z,59.00
2018-08-24T15:09:00.765Z,59.30
2018-08-24T15:11:29.491Z,59.10
2018-08-24T15:13:57.719Z,59.40
2018-08-24T15:16:25.962Z,59.00
2018-08-24T15:18:54.160Z,57.70
2018-08-24T15:21:22.421Z,57.30
2018-08-24T15:23:50.590Z,55.10
2018-08-24T15:26:18.825Z,55.70
2018-08-24T15:28:47.060Z,55.10
2018-08-24T15:31:15.306Z,55.70
2018-08-24T15:33:43.473Z,56.90
2018-08-24T15:36:11.663Z,56.70
2018-08-24T15:38:39.862Z,56.60
2018-08-24T15:41:08.197Z,58.00
2018-08-24T15:43:36.334Z,57.20
2018-08-24T15:46:04.501Z,57.00
2018-08-24T15:48:32.731Z,57.60
2018-08-24T15:51:01.017Z,57.30
2018-08-24T15:53:29.204Z,57.10
2018-08-24T15:55:57.413Z,57.40
2018-08-24T15:58:25.634Z,57.00
2018-08-24T16:00:53.947Z,57.20
2018-08-24T16:03:22.137Z,56.40
2018-08-24T16:05:51.178Z,56.80
2018-08-24T16:08:19.380Z,57.30
2018-08-24T16:10:47.570Z,57.40
2018-08-24T16:13:15.743Z,57.10
2018-08-24T16:15:44.030Z,57.30
2018-08-24T16:18:17.757Z,57.00
2018-08-24T16:20:46.017Z,57.80
2018-08-24T16:23:14.249Z,58.40
2018-08-24T16:25:42.445Z,58.30
2018-08-24T16:28:10.748Z,58.50
2018-08-24T16:30:39.073Z,57.70
2018-08-24T16:33:07.325Z,58.00
2018-08-24T16:35:35.911Z,57.60
2018-08-24T16:38:04.109Z,57.80
2018-08-24T16:40:32.434Z,56.10
2018-08-24T16:43:01.812Z,56.60
2018-08-24T16:45:30.080Z,56.70
2018-08-24T16:47:58.490Z,56.20
2018-08-24T16:50:26.769Z,56.50
2018-08-24T16:52:54.952Z,56.70
2018-08-24T16:55:23.182Z,55.80
2018-08-24T16:57:52.323Z,56.10
2018-08-24T17:00:20.970Z,55.80
2018-08-24T17:02:49.199Z,55.90
2018-08-24T17:05:17.584Z,55.90
2018-08-24T17:07:45.760Z,56.00
2018-08-24T17:10:13.965Z,56.10
2018-08-24T17:12:42.216Z,55.90
2018-08-24T17:15:10.497Z,56.50
2018-08-24T17:17:38.803Z,56.90
2018-08-24T17:20:06.973Z,56.80
2018-08-24T17:22:35.193Z,57.10
2018-08-24T17:25:03.560Z,57.90
2018-08-24T17:27:31.785Z,58.70
2018-08-24T17:30:00.115Z,58.30
2018-08-24T17:32:28.451Z,58.80
2018-08-24T17:34:56.689Z,59.40
2018-08-24T17:37:24.976Z,59.40
2018-08-24T17:39:53.186Z,59.30
2018-08-24T17:42:21.610Z,59.30
2018-08-24T17:44:49.795Z,59.40
2018-08-24T17:47:18.044Z,59.00
2018-08-24T17:49:46.235Z,59.60
2018-08-24T17:52:14.435Z,60.10
2018-08-24T17:54:42.660Z,59.70
2018-08-24T17:57:10.849Z,60.70
2018-08-24T17:59:39.101Z,61.20
2018-08-24T18:02:07.402Z,60.50
2018-08-24T18:04:35.610Z,61.20
2018-08-24T18:07:04.012Z,62.40
2018-08-24T18:09:32.212Z,63.30
2018-08-24T18:12:00.498Z,62.70
2018-08-24T18:14:29.165Z,62.40
2018-08-24T18:16:57.358Z,63.00
2018-08-24T18:19:25.620Z,62.90
2018-08-24T18:21:53.865Z,62.90
2018-08-24T18:24:23.160Z,63.20
2018-08-24T18:26:51.448Z,63.60
2018-08-24T18:29:19.623Z,63.50
2018-08-24T18:31:47.787Z,65.00
2018-08-24T18:34:15.988Z,65.20
2018-08-24T18:36:44.223Z,65.60
2018-08-24T18:39:13.054Z,66.40
2018-08-24T18:41:41.533Z,67.00
2018-08-24T18:44:09.883Z,68.30
2018-08-24T18:46:38.087Z,69.30
2018-08-24T18:49:06.391Z,70.80
2018-08-24T18:51:34.575Z,72.80
2018-08-24T18:54:02.784Z,71.80
2018-08-24T18:56:30.982Z,72.80
2018-08-24T18:58:59.138Z,73.00
2018-08-24T19:01:27.323Z,74.40
2018-08-24T19:03:55.547Z,72.90
2018-08-24T19:06:23.957Z,71.50
2018-08-24T19:08:52.307Z,71.70
2018-08-24T19:11:26.107Z,72.50
2018-08-24T19:13:54.345Z,72.90
2018-08-24T19:16:22.536Z,72.50
2018-08-24T19:18:56.168Z,73.60
2018-08-24T19:21:30.022Z,73.20
2018-08-24T19:23:58.221Z,74.60
2018-08-24T19:26:26.385Z,75.10
2018-08-24T19:29:00.271Z,74.40
2018-08-24T19:31:28.493Z,74.70
2018-08-24T19:33:56.739Z,75.70
2018-08-24T19:36:24.924Z,75.80
2018-08-24T19:38:53.164Z,77.30
2018-08-24T19:41:26.738Z,77.20
2018-08-24T19:43:55.048Z,75.60
2018-08-24T19:46:23.230Z,76.70
2018-08-24T19:48:56.896Z,78.20
2018-08-24T19:51:25.254Z,78.40
2018-08-24T19:53:53.436Z,77.30
2018-08-24T19:56:21.957Z,78.70
2018-08-24T19:58:55.904Z,78.90
2018-08-24T20:01:23.973Z,80.10
2018-08-24T20:03:52.276Z,77.90
2018-08-24T20:06:25.940Z,79.00
2018-08-24T20:10:01.205Z,78.80
2018-08-24T20:12:29.588Z,79.60
2018-08-24T20:15:03.347Z,79.70
2018-08-24T20:17:31.691Z,79.80
2018-08-24T20:20:04.114Z,80.50
2018-08-24T20:22:32.495Z,80.30
2018-08-24T20:25:00.974Z,81.40
2018-08-24T20:27:29.369Z,81.80
2018-08-24T20:29:57.924Z,82.30
2018-08-24T20:32:26.138Z,83.90
2018-08-24T20:34:54.504Z,85.00
2018-08-24T20:37:22.873Z,82.60
2018-08-24T20:39:51.204Z,82.60
2018-08-24T20:42:19.429Z,83.20
2018-08-24T20:44:47.650Z,84.00
2018-08-24T20:47:16.287Z,85.20
2018-08-24T20:49:44.586Z,86.10
2018-08-24T20:52:13.107Z,83.00
2018-08-24T20:54:41.388Z,83.30
2018-08-24T20:57:09.991Z,83.80
2018-08-24T20:59:38.556Z,82.90
2018-08-24T21:02:06.987Z,83.60
2018-08-24T21:04:35.414Z,82.90
2018-08-24T21:07:03.595Z,82.70
2018-08-24T21:09:32.004Z,83.60
2018-08-24T21:12:00.215Z,84.50
2018-08-24T21:14:28.818Z,84.70
2018-08-24T21:16:57.103Z,84.20
2018-08-24T21:19:25.411Z,85.80
2018-08-24T21:21:53.989Z,87.10
2018-08-24T21:24:22.341Z,86.60
2018-08-24T21:26:50.876Z,87.10
2018-08-24T21:29:19.091Z,86.40
2018-08-24T21:31:47.456Z,88.70
2018-08-24T21:34:15.716Z,87.40
2018-08-24T21:36:43.995Z,86.90
2018-08-24T21:39:12.899Z,87.70
2018-08-24T21:41:41.795Z,88.60
2018-08-24T21:44:13.681Z,90.20
2018-08-24T21:46:41.979Z,89.70
2018-08-24T21:49:10.157Z,89.20
2018-08-24T21:51:38.388Z,89.40
2018-08-24T21:54:06.748Z,89.00
2018-08-24T21:56:34.978Z,89.60
2018-08-24T21:59:03.195Z,89.30
2018-08-24T22:01:31.370Z,88.50
2018-08-24T22:03:59.545Z,88.40
2018-08-24T22:06:27.742Z,88.50
2018-08-24T22:08:55.933Z,88.00
2018-08-24T22:11:24.120Z,88.30
2018-08-24T22:13:52.290Z,88.10
2018-08-24T22:16:20.474Z,88.00
2018-08-24T22:18:48.662Z,88.60
2018-08-24T22:21:16.875Z,88.10
2018-08-24T22:23:45.018Z,87.80
2018-08-24T22:26:13.187Z,88.20
2018-08-24T22:28:41.398Z,88.10
2018-08-24T22:31:09.669Z,87.90
2018-08-24T22:33:37.951Z,88.90
2018-08-24T22:36:06.161Z,89.10
2018-08-24T22:38:34.370Z,89.00
2018-08-24T22:41:02.613Z,89.60
2018-08-24T22:43:34.837Z,89.20
2018-08-24T22:46:03.702Z,90.10
2018-08-24T22:48:32.599Z,89.40
2018-08-24T22:51:01.168Z,90.20
2018-08-24T22:53:29.542Z,89.70
2018-08-24T22:55:57.866Z,90.20
2018-08-24T22:58:26.201Z,90.20
2018-08-24T23:00:54.348Z,90.40
2018-08-24T23:03:22.648Z,91.00
2018-08-24T23:05:50.848Z,90.70
2018-08-24T23:08:19.032Z,90.70
2018-08-24T23:10:47.300Z,91.20
2018-08-24T23:13:15.487Z,90.90
2018-08-24T23:15:43.757Z,91.30
2018-08-24T23:18:11.928Z,91.30
2018-08-24T23:20:40.135Z,91.40
2018-08-24T23:23:08.367Z,91.50
2018-08-24T23:25:36.579Z,91.20
2018-08-24T23:28:04.895Z,91.20
2018-08-24T23:30:33.077Z,91.90
2018-08-24T23:33:01.295Z,91.80
2018-08-24T23:35:29.493Z,91.40
2018-08-24T23:37:57.637Z,91.70
2018-08-24T23:40:25.875Z,92.00
2018-08-24T23:42:54.050Z,91.90
2018-08-24T23:45:22.250Z,91.80
2018-08-24T23:47:50.438Z,91.90
2018-08-24T23:50:18.665Z,92.00
2018-08-24T23:52:46.891Z,92.30
2018-08-24T23:55:15.158Z,92.00
2018-08-24T23:57:43.347Z,92.00
